Browns Park, Colorado
Current Conditions -  °F | °C
As of 8:53 PM on Saturday 24 Jan 2015 (Local Time) from KVEL Reporting Station
Clear Clear  
Wind Chill: 17°   Ceiling: Unl
Heat Index: 25°   Visibility: 10mi
Dew Point: 17°   Wind: 7mph
Humidity: 72%   Direction: 260°W
Pressure: 30.37"   Gusts: NA
Location:  40.7245°N, 108.541°W
Report Text: KVEL 250353Z AUTO 26006KT 10SM CLR M04/M08 A3037 RMK AO2 SLP326 T10391083
Loading
Personal Weather Stations






























Interactive Weather Map New forecast layout! Learn more

10-Day Weather Forecast

Advertisements
Track Severe Weather on mobile